createdAt,value
2019-05-16T00:00:29.503Z,10.60
2019-05-16T00:02:37.711Z,10.60
2019-05-16T00:04:43.853Z,10.60
2019-05-16T00:09:45.046Z,10.60
2019-05-16T00:20:20.494Z,10.60
2019-05-16T00:31:01.799Z,10.60
2019-05-16T00:34:01.194Z,10.60
2019-05-16T00:42:31.414Z,10.60
2019-05-16T00:44:47.810Z,10.60
2019-05-16T00:47:09.220Z,10.60
2019-05-16T00:50:28.709Z,10.60
2019-05-16T01:00:38.317Z,10.70
2019-05-16T01:06:23.235Z,10.70
2019-05-16T01:09:20.674Z,10.70
2019-05-16T01:11:52.661Z,10.70
2019-05-16T01:21:24.537Z,10.70
2019-05-16T02:03:39.593Z,10.50
2019-05-16T02:05:43.697Z,10.50
2019-05-16T02:07:49.150Z,10.50
2019-05-16T02:09:53.081Z,10.50
2019-05-16T02:11:58.937Z,10.50
2019-05-16T02:14:02.602Z,10.40
2019-05-16T02:16:08.328Z,10.40
2019-05-16T02:18:12.157Z,10.40
2019-05-16T02:20:18.039Z,10.40
2019-05-16T02:22:24.927Z,10.30
2019-05-16T02:29:37.501Z,10.20
2019-05-16T02:35:31.171Z,10.00
2019-05-16T02:37:37.448Z,9.90
2019-05-16T02:39:41.511Z,9.90
2019-05-16T02:41:46.203Z,9.80
2019-05-16T02:43:51.002Z,9.80
2019-05-16T02:45:55.213Z,9.80
2019-05-16T02:48:01.337Z,9.70
2019-05-16T02:51:26.396Z,9.70
2019-05-16T02:55:11.678Z,9.70
2019-05-16T03:00:03.175Z,9.70
2019-05-16T03:04:22.260Z,9.80
2019-05-16T03:06:26.845Z,9.80
2019-05-16T03:08:32.159Z,9.80
2019-05-16T03:10:36.474Z,9.70
2019-05-16T03:12:41.315Z,9.70
2019-05-16T03:14:46.952Z,9.80
2019-05-16T03:16:51.980Z,9.70
2019-05-16T03:18:56.174Z,9.70
2019-05-16T03:21:02.025Z,9.70
2019-05-16T03:23:05.988Z,9.70
2019-05-16T03:25:11.985Z,9.70
2019-05-16T03:27:16.311Z,9.70
2019-05-16T03:29:21.822Z,9.70
2019-05-16T03:31:26.093Z,9.60
2019-05-16T03:33:35.174Z,9.60
2019-05-16T03:35:35.907Z,9.60
2019-05-16T03:37:51.439Z,9.60
2019-05-16T03:39:51.268Z,9.60
2019-05-16T03:41:53.846Z,9.60
2019-05-16T03:44:02.959Z,9.50
2019-05-16T03:46:11.509Z,9.50
2019-05-16T03:48:13.615Z,9.50
2019-05-16T03:50:21.897Z,9.60
2019-05-16T03:52:26.187Z,9.60
2019-05-16T03:54:31.419Z,9.60
2019-05-16T03:56:35.619Z,9.60
2019-05-16T03:58:41.483Z,9.60
2019-05-16T04:00:54.274Z,9.60
2019-05-16T04:03:01.322Z,9.70
2019-05-16T04:05:04.221Z,9.70
2019-05-16T04:07:11.017Z,9.70
2019-05-16T04:09:13.803Z,9.70
2019-05-16T04:11:22.678Z,9.70
2019-05-16T04:13:23.452Z,9.80
2019-05-16T04:15:30.926Z,9.70
2019-05-16T04:17:32.883Z,9.80
2019-05-16T04:19:36.668Z,9.80
2019-05-16T04:21:42.122Z,9.80
2019-05-16T04:23:45.995Z,9.70
2019-05-16T04:25:54.735Z,9.70
2019-05-16T04:28:31.350Z,9.70
2019-05-16T04:31:02.242Z,9.70
2019-05-16T04:33:37.276Z,9.70
2019-05-16T04:36:51.491Z,9.70
2019-05-16T04:38:45.151Z,9.70
2019-05-16T04:41:15.114Z,9.70
2019-05-16T04:43:45.502Z,9.80
2019-05-16T04:46:50.726Z,9.80
2019-05-16T04:50:03.377Z,9.90
2019-05-16T04:55:42.062Z,10.00
2019-05-16T04:58:15.404Z,10.20
2019-05-16T05:01:30.785Z,10.30
2019-05-16T05:04:42.862Z,10.30
2019-05-16T05:08:01.528Z,10.20
2019-05-16T05:10:37.177Z,10.30
2019-05-16T05:13:11.286Z,10.20
2019-05-16T05:16:11.966Z,10.20
2019-05-16T05:19:01.285Z,10.20
2019-05-16T05:21:01.273Z,10.30
2019-05-16T05:23:05.178Z,10.40
2019-05-16T05:25:11.005Z,10.50
2019-05-16T05:27:15.181Z,10.60
2019-05-16T05:29:20.051Z,10.70
2019-05-16T05:31:25.721Z,10.80
2019-05-16T05:33:30.520Z,11.00
2019-05-16T05:35:34.997Z,11.20
2019-05-16T05:37:54.272Z,11.30
2019-05-16T05:40:13.811Z,11.30
2019-05-16T05:42:43.629Z,11.50
2019-05-16T05:45:03.227Z,11.50
2019-05-16T05:47:15.122Z,11.50
2019-05-16T05:50:07.579Z,11.50
2019-05-16T05:52:46.280Z,11.50
2019-05-16T05:54:50.482Z,11.30
2019-05-16T05:57:03.051Z,11.30
2019-05-16T05:59:43.920Z,11.40
2019-05-16T06:02:15.632Z,11.50
2019-05-16T06:04:39.526Z,11.30
2019-05-16T06:06:45.340Z,11.20
2019-05-16T06:09:24.820Z,11.00
2019-05-16T06:11:25.242Z,11.10
2019-05-16T06:14:00.528Z,11.20
2019-05-16T06:18:56.729Z,11.00
2019-05-16T06:21:00.842Z,11.00
2019-05-16T06:23:04.688Z,11.10
2019-05-16T06:25:13.428Z,11.10
2019-05-16T06:27:14.381Z,11.10
2019-05-16T06:29:20.391Z,11.20
2019-05-16T06:31:23.881Z,11.20
2019-05-16T06:33:30.335Z,11.30
2019-05-16T06:35:33.342Z,11.20
2019-05-16T06:40:24.212Z,11.40
2019-05-16T06:42:36.533Z,11.50
2019-05-16T06:45:10.634Z,11.50
2019-05-16T06:48:01.037Z,11.60
2019-05-16T06:50:16.262Z,11.70
2019-05-16T06:52:20.336Z,12.00
2019-05-16T06:54:24.262Z,12.10
2019-05-16T06:56:30.543Z,12.20
2019-05-16T06:58:44.764Z,12.30
2019-05-16T07:00:40.605Z,12.40
2019-05-16T07:02:44.796Z,12.60
2019-05-16T07:04:50.645Z,12.60
2019-05-16T07:07:02.851Z,12.40
2019-05-16T07:09:01.502Z,12.40
2019-05-16T07:11:05.535Z,12.50
2019-05-16T07:13:10.387Z,12.70
2019-05-16T07:15:14.801Z,12.70
2019-05-16T07:17:20.231Z,12.60
2019-05-16T07:19:24.444Z,12.60
2019-05-16T07:21:31.209Z,13.10
2019-05-16T07:23:34.910Z,13.20
2019-05-16T07:25:43.448Z,13.60
2019-05-16T07:27:56.450Z,13.70
2019-05-16T07:30:10.602Z,13.80
2019-05-16T07:34:27.458Z,13.80
2019-05-16T07:35:21.144Z,13.60
2019-05-16T07:38:20.178Z,13.50
2019-05-16T07:40:59.750Z,13.40
2019-05-16T07:43:24.976Z,13.60
2019-05-16T07:45:37.907Z,13.80
2019-05-16T07:48:31.687Z,14.10
2019-05-16T07:50:36.525Z,14.50
2019-05-16T07:54:50.895Z,15.00
2019-05-16T07:56:59.841Z,14.90
2019-05-16T07:59:00.867Z,14.70
2019-05-16T08:01:09.011Z,14.40
2019-05-16T08:03:10.806Z,14.50
2019-05-16T08:05:14.818Z,14.60
2019-05-16T08:07:20.110Z,14.70
2019-05-16T08:09:24.229Z,14.80
2019-05-16T08:11:30.416Z,15.10
2019-05-16T08:13:33.703Z,15.10
2019-05-16T08:15:37.568Z,15.20
2019-05-16T08:17:44.699Z,15.20
2019-05-16T08:19:47.201Z,15.60
2019-05-16T08:21:51.273Z,15.40
2019-05-16T08:23:55.111Z,15.40
2019-05-16T08:26:01.232Z,15.60
2019-05-16T08:28:11.476Z,15.60
2019-05-16T08:30:13.783Z,15.70
2019-05-16T08:32:22.656Z,15.80
2019-05-16T08:34:23.807Z,15.50
2019-05-16T08:36:27.755Z,15.30
2019-05-16T08:38:31.540Z,15.20
2019-05-16T08:41:01.250Z,15.10
2019-05-16T08:42:45.456Z,15.10
2019-05-16T08:44:51.732Z,15.00
2019-05-16T08:46:58.101Z,15.10
2019-05-16T08:49:01.262Z,15.50
2019-05-16T08:51:05.627Z,15.70
2019-05-16T08:53:13.055Z,15.70
2019-05-16T08:55:17.735Z,15.80
2019-05-16T08:57:28.324Z,16.00
2019-05-16T08:59:27.629Z,16.30
2019-05-16T09:01:34.943Z,16.40
2019-05-16T09:03:40.727Z,16.30
2019-05-16T09:05:43.181Z,16.50
2019-05-16T09:07:47.056Z,16.70
2019-05-16T09:09:51.891Z,16.90
2019-05-16T09:12:03.875Z,17.00
2019-05-16T09:14:01.868Z,17.10
2019-05-16T09:16:07.809Z,17.10
2019-05-16T09:18:11.748Z,16.80
2019-05-16T09:20:17.377Z,16.70
2019-05-16T09:22:21.227Z,16.70
2019-05-16T09:24:27.148Z,16.70
2019-05-16T09:26:30.810Z,16.80
2019-05-16T09:28:34.587Z,17.10
2019-05-16T09:30:39.635Z,17.30
2019-05-16T09:32:43.607Z,17.70
2019-05-16T09:34:48.448Z,18.20
2019-05-16T09:36:52.305Z,18.40
2019-05-16T09:38:58.010Z,18.50
2019-05-16T09:41:07.672Z,18.20
2019-05-16T09:43:10.504Z,17.80
2019-05-16T09:45:17.033Z,17.30
2019-05-16T09:47:21.773Z,17.20
2019-05-16T09:49:29.304Z,17.30
2019-05-16T09:51:32.771Z,17.60
2019-05-16T09:53:37.041Z,17.90
2019-05-16T09:55:43.883Z,17.90
2019-05-16T09:57:47.910Z,17.70
2019-05-16T09:59:51.703Z,18.00
2019-05-16T10:01:58.763Z,18.40
2019-05-16T10:04:02.887Z,18.40
2019-05-16T10:06:08.017Z,18.30
2019-05-16T10:08:12.238Z,17.50
2019-05-16T10:10:17.299Z,17.30
2019-05-16T10:12:21.211Z,17.30
2019-05-16T10:14:26.854Z,17.40
2019-05-16T10:16:30.875Z,17.50
2019-05-16T10:18:37.010Z,17.60
2019-05-16T10:20:41.085Z,17.30
2019-05-16T10:22:46.856Z,17.30
2019-05-16T10:24:51.014Z,17.20
2019-05-16T10:26:57.026Z,17.00
2019-05-16T10:29:00.747Z,17.10
2019-05-16T10:31:06.928Z,17.10
2019-05-16T10:33:10.840Z,16.90
2019-05-16T10:35:15.413Z,16.30
2019-05-16T10:37:19.910Z,15.90
2019-05-16T10:39:26.820Z,15.60
2019-05-16T10:41:57.179Z,15.10
2019-05-16T10:44:02.998Z,14.80
2019-05-16T10:46:17.968Z,14.80
2019-05-16T10:48:27.333Z,14.80
2019-05-16T10:50:36.992Z,14.70
2019-05-16T10:52:47.543Z,14.60
2019-05-16T10:55:02.237Z,14.60
2019-05-16T10:57:12.531Z,14.80
2019-05-16T11:01:31.388Z,14.70
2019-05-16T11:03:48.872Z,14.80
2019-05-16T11:06:05.306Z,15.00
2019-05-16T11:08:16.974Z,15.10
2019-05-16T11:10:29.714Z,14.80
2019-05-16T11:12:50.254Z,15.00
2019-05-16T11:14:55.440Z,15.20
2019-05-16T11:17:11.840Z,15.30
2019-05-16T11:19:24.270Z,15.50
2019-05-16T11:21:27.789Z,15.40
2019-05-16T11:23:32.143Z,15.00
2019-05-16T11:25:36.708Z,14.90
2019-05-16T11:27:41.251Z,14.90
2019-05-16T11:29:47.152Z,15.10
2019-05-16T11:31:50.631Z,15.20
2019-05-16T11:33:57.306Z,15.30
2019-05-16T11:36:00.100Z,15.20
2019-05-16T11:38:06.858Z,15.30
2019-05-16T11:40:10.535Z,15.40
2019-05-16T11:42:17.331Z,15.50
2019-05-16T11:44:20.277Z,15.70
2019-05-16T11:46:24.055Z,15.90
2019-05-16T11:48:29.499Z,16.50
2019-05-16T11:50:33.727Z,17.30
2019-05-16T11:52:40.729Z,17.40
2019-05-16T11:54:43.612Z,17.60
2019-05-16T11:56:47.421Z,17.90
2019-05-16T11:58:51.210Z,18.10
2019-05-16T12:00:57.394Z,18.60
2019-05-16T12:03:01.172Z,18.60
2019-05-16T12:05:05.705Z,18.20
2019-05-16T12:07:09.495Z,18.40
2019-05-16T12:09:13.427Z,18.40
2019-05-16T12:11:17.849Z,18.60
2019-05-16T12:13:29.714Z,18.90
2019-05-16T12:15:28.141Z,18.90
2019-05-16T12:17:31.943Z,18.50
2019-05-16T12:19:42.808Z,17.90
2019-05-16T12:21:41.429Z,17.80
2019-05-16T12:23:47.311Z,17.80
2019-05-16T12:25:51.000Z,17.60
2019-05-16T12:27:56.927Z,17.40
2019-05-16T12:30:00.601Z,17.40
2019-05-16T12:32:07.205Z,17.20
2019-05-16T12:34:10.245Z,16.90
2019-05-16T12:36:14.288Z,16.40
2019-05-16T12:38:18.391Z,15.50
2019-05-16T12:40:22.266Z,15.20
2019-05-16T12:42:27.091Z,14.80
2019-05-16T12:44:30.987Z,14.70
2019-05-16T12:46:36.507Z,14.40
2019-05-16T12:48:40.843Z,14.30
2019-05-16T12:50:47.687Z,14.40
2019-05-16T12:52:50.763Z,14.40
2019-05-16T12:54:56.982Z,14.30
2019-05-16T12:57:00.249Z,14.30
2019-05-16T12:59:04.140Z,14.30
2019-05-16T13:01:08.089Z,14.40
2019-05-16T13:03:11.944Z,14.50
2019-05-16T13:05:18.732Z,14.50
2019-05-16T13:07:21.985Z,14.60
2019-05-16T13:09:26.500Z,14.60
2019-05-16T13:11:31.082Z,14.70
2019-05-16T13:13:37.546Z,14.60
2019-05-16T13:15:42.406Z,14.60
2019-05-16T13:17:47.422Z,14.60
2019-05-16T13:19:51.481Z,14.60
2019-05-16T13:21:57.619Z,14.50
2019-05-16T13:24:00.776Z,14.50
2019-05-16T13:26:07.293Z,14.40
2019-05-16T13:28:12.524Z,14.40
2019-05-16T13:30:17.478Z,14.40
2019-05-16T13:32:21.755Z,14.50
2019-05-16T13:34:28.155Z,14.40
2019-05-16T13:36:31.275Z,14.30
2019-05-16T13:38:35.080Z,14.30
2019-05-16T13:40:38.972Z,14.60
2019-05-16T13:42:47.732Z,14.80
2019-05-16T13:44:57.467Z,15.20
2019-05-16T13:47:04.128Z,15.40
2019-05-16T13:49:08.290Z,15.50
2019-05-16T13:51:30.908Z,15.70
2019-05-16T13:53:57.898Z,15.90
2019-05-16T13:56:21.447Z,15.90
2019-05-16T13:58:28.676Z,16.00
2019-05-16T14:00:32.836Z,16.10
2019-05-16T14:02:37.792Z,16.00
2019-05-16T14:05:10.238Z,15.60
2019-05-16T14:07:24.259Z,15.50
2019-05-16T14:09:28.658Z,15.50
2019-05-16T14:12:03.596Z,15.40
2019-05-16T14:14:32.116Z,15.10
2019-05-16T14:16:31.877Z,14.90
2019-05-16T14:19:01.257Z,15.00
2019-05-16T14:21:06.930Z,14.90
2019-05-16T14:23:17.564Z,15.00
2019-05-16T14:25:30.415Z,15.10
2019-05-16T14:27:34.421Z,15.20
2019-05-16T14:29:38.281Z,15.30
2019-05-16T14:31:42.535Z,15.30
2019-05-16T14:33:47.386Z,15.40
2019-05-16T14:35:51.727Z,15.50
2019-05-16T14:37:58.166Z,15.60
2019-05-16T14:40:02.179Z,15.90
2019-05-16T14:45:10.970Z,16.00
2019-05-16T14:47:08.502Z,15.60
2019-05-16T14:49:24.534Z,15.30
2019-05-16T14:51:31.824Z,15.10
2019-05-16T14:53:37.956Z,14.70
2019-05-16T14:56:17.173Z,14.60
2019-05-16T14:58:21.187Z,14.50
2019-05-16T15:00:31.480Z,14.30
2019-05-16T15:02:52.030Z,14.10
2019-05-16T15:04:52.005Z,13.90
2019-05-16T15:07:07.398Z,13.70
2019-05-16T15:09:12.720Z,13.50
2019-05-16T15:12:22.034Z,13.50
2019-05-16T15:14:28.088Z,13.40
2019-05-16T15:16:47.433Z,13.20
2019-05-16T15:18:40.365Z,13.10
2019-05-16T15:20:49.703Z,13.20
2019-05-16T15:23:07.696Z,13.20
2019-05-16T15:25:13.928Z,13.00
2019-05-16T15:27:31.338Z,13.00
2019-05-16T15:30:06.946Z,12.90
2019-05-16T15:32:33.694Z,12.90
2019-05-16T15:35:04.147Z,13.00
2019-05-16T15:37:07.826Z,13.00
2019-05-16T15:39:12.307Z,13.00
2019-05-16T15:41:27.856Z,13.00
2019-05-16T15:43:27.652Z,12.90
2019-05-16T15:45:42.713Z,12.70
2019-05-16T15:47:42.053Z,12.60
2019-05-16T15:50:07.999Z,12.50
2019-05-16T15:52:27.463Z,12.50
2019-05-16T15:54:33.908Z,12.50
2019-05-16T15:56:51.867Z,12.60
2019-05-16T15:59:01.764Z,12.50
2019-05-16T16:01:07.716Z,12.60
2019-05-16T16:03:14.235Z,12.60
2019-05-16T16:05:26.585Z,12.60
2019-05-16T16:07:30.303Z,12.70
2019-05-16T16:09:34.103Z,12.60
2019-05-16T16:11:38.061Z,12.50
2019-05-16T16:13:41.855Z,12.50
2019-05-16T16:15:51.515Z,12.40
2019-05-16T16:17:51.340Z,12.20
2019-05-16T16:19:57.781Z,12.30
2019-05-16T16:22:07.310Z,12.30
2019-05-16T16:24:12.746Z,12.10
2019-05-16T16:26:23.586Z,11.90
2019-05-16T16:28:27.684Z,11.90
2019-05-16T16:30:31.815Z,12.00
2019-05-16T16:32:38.001Z,11.90
2019-05-16T16:34:42.189Z,11.90
2019-05-16T16:36:47.588Z,11.90
2019-05-16T16:38:51.623Z,11.90
2019-05-16T16:40:57.376Z,11.80
2019-05-16T16:43:11.956Z,11.70
2019-05-16T16:45:31.814Z,11.70
2019-05-16T16:47:51.000Z,11.60
2019-05-16T16:50:07.443Z,11.50
2019-05-16T16:52:27.295Z,11.50
2019-05-16T16:54:44.422Z,11.50
2019-05-16T16:56:47.339Z,11.40
2019-05-16T16:58:51.536Z,11.40
2019-05-16T17:01:01.337Z,11.40
2019-05-16T17:03:09.282Z,11.50
2019-05-16T17:05:12.350Z,11.50
2019-05-16T17:07:16.715Z,11.40
2019-05-16T17:09:20.894Z,11.40
2019-05-16T17:11:26.474Z,11.50
2019-05-16T17:13:30.536Z,11.50
2019-05-16T17:15:36.488Z,11.50
2019-05-16T17:17:39.959Z,11.50
2019-05-16T17:19:43.733Z,11.50
2019-05-16T17:22:01.910Z,11.60
2019-05-16T17:23:53.222Z,11.60
2019-05-16T17:25:57.129Z,11.60
2019-05-16T17:28:00.908Z,11.60
2019-05-16T17:30:07.463Z,11.60
2019-05-16T17:32:11.382Z,11.60
2019-05-16T17:34:16.303Z,11.60
2019-05-16T17:36:23.095Z,11.60
2019-05-16T17:38:27.974Z,11.50
2019-05-16T17:40:31.821Z,11.50
2019-05-16T17:42:37.357Z,11.40
2019-05-16T17:44:41.365Z,11.30
2019-05-16T17:46:46.768Z,11.30
2019-05-16T17:48:50.703Z,11.20
2019-05-16T17:50:56.894Z,11.30
2019-05-16T17:53:00.538Z,11.30
2019-05-16T17:55:07.089Z,11.20
2019-05-16T17:57:10.293Z,11.10
2019-05-16T17:59:16.844Z,11.10
2019-05-16T18:04:31.205Z,11.10
2019-05-16T18:06:39.869Z,11.10
2019-05-16T18:08:47.001Z,11.10
2019-05-16T18:10:51.017Z,11.10
2019-05-16T18:12:56.839Z,11.00
2019-05-16T18:15:00.888Z,11.00
2019-05-16T18:17:07.271Z,11.00
2019-05-16T18:19:14.038Z,11.00
2019-05-16T18:21:21.379Z,11.00
2019-05-16T18:23:27.432Z,11.00
2019-05-16T18:25:33.446Z,11.00
2019-05-16T18:27:37.732Z,10.90
2019-05-16T18:29:47.064Z,10.80
2019-05-16T18:31:52.269Z,10.80
2019-05-16T18:36:53.497Z,10.80
2019-05-16T18:39:10.375Z,10.90
2019-05-16T18:41:32.196Z,10.90
2019-05-16T18:43:33.117Z,10.90
2019-05-16T18:46:03.877Z,10.90
2019-05-16T18:48:18.860Z,11.00
2019-05-16T18:50:20.546Z,10.90
2019-05-16T18:52:24.578Z,10.90
2019-05-16T18:54:43.583Z,10.90
2019-05-16T18:56:50.194Z,10.90
2019-05-16T18:58:52.233Z,10.80
2019-05-16T19:03:42.085Z,10.80
2019-05-16T19:05:47.335Z,10.80
2019-05-16T19:07:56.259Z,10.80
2019-05-16T19:22:06.515Z,10.80
2019-05-16T19:24:42.823Z,10.80
2019-05-16T19:27:08.546Z,10.80
2019-05-16T19:29:36.790Z,10.80
2019-05-16T19:31:40.162Z,10.80
2019-05-16T19:34:07.168Z,10.80
2019-05-16T19:36:11.066Z,10.80
2019-05-16T19:38:22.816Z,10.80
2019-05-16T19:43:32.485Z,10.70
2019-05-16T19:45:57.084Z,10.70
2019-05-16T19:48:26.923Z,10.70
2019-05-16T19:51:10.346Z,10.70
2019-05-16T20:04:07.416Z,10.60
2019-05-16T20:07:26.331Z,10.60
2019-05-16T20:09:19.465Z,10.60
2019-05-16T20:14:41.729Z,10.60
2019-05-16T20:16:39.556Z,10.60
2019-05-16T20:19:01.368Z,10.60
2019-05-16T20:21:11.600Z,10.60
2019-05-16T20:23:27.664Z,10.60
2019-05-16T20:25:53.150Z,10.60
2019-05-16T20:27:55.895Z,10.60
2019-05-16T20:30:31.525Z,10.60
2019-05-16T20:36:03.972Z,10.70
2019-05-16T20:41:27.884Z,10.70
2019-05-16T20:54:08.066Z,10.70
2019-05-16T21:08:26.570Z,10.80
2019-05-16T21:11:08.582Z,10.80
2019-05-16T21:13:13.112Z,10.80
2019-05-16T21:15:41.345Z,10.80
2019-05-16T21:18:03.839Z,10.80
2019-05-16T21:20:54.474Z,10.80
2019-05-16T21:23:19.405Z,10.80
2019-05-16T21:25:29.331Z,10.80
2019-05-16T21:27:37.854Z,10.70
2019-05-16T21:32:47.271Z,10.70
2019-05-16T21:41:22.527Z,10.80
2019-05-16T21:44:08.344Z,10.80
2019-05-16T21:52:56.441Z,10.80
2019-05-16T21:54:56.340Z,10.70
2019-05-16T21:57:06.676Z,10.70
2019-05-16T21:59:06.978Z,10.70
2019-05-16T22:01:15.470Z,10.70
2019-05-16T22:03:59.337Z,10.70
2019-05-16T22:05:57.480Z,10.70
2019-05-16T22:07:56.885Z,10.70
2019-05-16T22:10:01.073Z,10.70
2019-05-16T22:12:06.682Z,10.60
2019-05-16T22:14:11.384Z,10.60
2019-05-16T22:16:17.549Z,10.60
2019-05-16T22:18:23.447Z,10.60
2019-05-16T22:20:30.838Z,10.60
2019-05-16T22:22:38.162Z,10.50
2019-05-16T22:25:03.857Z,10.50
2019-05-16T22:26:47.093Z,10.40
2019-05-16T22:28:51.176Z,10.40
2019-05-16T22:30:58.137Z,10.30
2019-05-16T22:33:01.325Z,10.30
2019-05-16T22:35:16.827Z,10.20
2019-05-16T22:37:28.007Z,10.20
2019-05-16T22:39:31.959Z,10.20
2019-05-16T22:41:37.148Z,10.10
2019-05-16T22:43:41.393Z,10.10
2019-05-16T22:46:06.376Z,10.10
2019-05-16T22:58:43.399Z,10.10
2019-05-16T23:00:50.627Z,10.00
2019-05-16T23:02:57.772Z,10.00
2019-05-16T23:05:18.954Z,10.00
2019-05-16T23:07:16.494Z,10.00
2019-05-16T23:09:36.507Z,9.90
2019-05-16T23:11:40.168Z,9.90
2019-05-16T23:13:47.082Z,9.90
2019-05-16T23:15:54.176Z,9.80
2019-05-16T23:17:58.405Z,9.80
2019-05-16T23:20:02.620Z,9.90
2019-05-16T23:22:08.232Z,9.90
2019-05-16T23:24:17.247Z,10.00
2019-05-16T23:26:26.827Z,10.00
2019-05-16T23:28:49.650Z,10.00
2019-05-16T23:31:13.126Z,10.10
2019-05-16T23:33:16.238Z,10.10
2019-05-16T23:35:20.254Z,10.10
2019-05-16T23:37:30.306Z,10.20
2019-05-16T23:39:33.313Z,10.20
2019-05-16T23:41:37.694Z,10.20
2019-05-16T23:43:49.480Z,10.30
2019-05-16T23:46:04.033Z,10.20
2019-05-16T23:48:16.441Z,10.30
2019-05-16T23:50:20.943Z,10.30
2019-05-16T23:52:36.786Z,10.30
2019-05-16T23:54:51.401Z,10.30
2019-05-16T23:56:50.228Z,10.30
2019-05-16T23:58:54.269Z,10.30
